sensor_id;sensor_type;location;lat;lon;timestamp;temperature;humidity
26164;DHT22;13914;48.178;11.716;2023-03-23T00:01:18;10.30;67.80
26164;DHT22;13914;48.178;11.716;2023-03-23T00:03:47;10.30;67.70
26164;DHT22;13914;48.178;11.716;2023-03-23T00:06:15;10.30;67.70
26164;DHT22;13914;48.178;11.716;2023-03-23T00:08:47;10.30;67.90
26164;DHT22;13914;48.178;11.716;2023-03-23T00:11:19;10.30;67.90
26164;DHT22;13914;48.178;11.716;2023-03-23T00:13:48;10.20;67.90
26164;DHT22;13914;48.178;11.716;2023-03-23T00:16:21;10.20;67.80
26164;DHT22;13914;48.178;11.716;2023-03-23T00:18:55;10.20;68.00
26164;DHT22;13914;48.178;11.716;2023-03-23T00:21:23;10.10;67.90
26164;DHT22;13914;48.178;11.716;2023-03-23T00:24:11;10.10;67.90
26164;DHT22;13914;48.178;11.716;2023-03-23T00:26:42;10.10;68.00
26164;DHT22;13914;48.178;11.716;2023-03-23T00:29:17;10.10;68.00
26164;DHT22;13914;48.178;11.716;2023-03-23T00:31:45;10.00;67.80
26164;DHT22;13914;48.178;11.716;2023-03-23T00:34:20;10.00;68.00
26164;DHT22;13914;48.178;11.716;2023-03-23T00:36:49;10.00;68.00
26164;DHT22;13914;48.178;11.716;2023-03-23T00:39:19;10.00;68.00
26164;DHT22;13914;48.178;11.716;2023-03-23T00:41:46;9.90;68.00
26164;DHT22;13914;48.178;11.716;2023-03-23T00:44:13;9.90;68.20
26164;DHT22;13914;48.178;11.716;2023-03-23T00:46:43;9.90;69.20
26164;DHT22;13914;48.178;11.716;2023-03-23T00:49:21;9.90;68.00
26164;DHT22;13914;48.178;11.716;2023-03-23T00:51:55;9.80;68.10
26164;DHT22;13914;48.178;11.716;2023-03-23T00:54:23;9.80;68.10
26164;DHT22;13914;48.178;11.716;2023-03-23T00:56:50;9.80;68.20
26164;DHT22;13914;48.178;11.716;2023-03-23T00:59:16;9.80;68.00
26164;DHT22;13914;48.178;11.716;2023-03-23T01:01:43;9.80;68.00
26164;DHT22;13914;48.178;11.716;2023-03-23T01:04:09;9.70;68.20
26164;DHT22;13914;48.178;11.716;2023-03-23T01:06:39;9.70;68.30
26164;DHT22;13914;48.178;11.716;2023-03-23T01:09:10;9.70;68.30
26164;DHT22;13914;48.178;11.716;2023-03-23T01:11:41;9.70;68.20
26164;DHT22;13914;48.178;11.716;2023-03-23T01:14:08;9.70;68.40
26164;DHT22;13914;48.178;11.716;2023-03-23T01:16:34;9.60;68.10
26164;DHT22;13914;48.178;11.716;2023-03-23T01:19:00;9.60;68.30
26164;DHT22;13914;48.178;11.716;2023-03-23T01:21:26;9.60;68.30
26164;DHT22;13914;48.178;11.716;2023-03-23T01:23:52;9.60;68.30
26164;DHT22;13914;48.178;11.716;2023-03-23T01:26:23;9.60;68.30
26164;DHT22;13914;48.178;11.716;2023-03-23T01:28:51;9.50;68.10
26164;DHT22;13914;48.178;11.716;2023-03-23T01:31:19;9.50;68.50
26164;DHT22;13914;48.178;11.716;2023-03-23T01:33:47;9.50;68.40
26164;DHT22;13914;48.178;11.716;2023-03-23T01:36:19;9.50;68.50
26164;DHT22;13914;48.178;11.716;2023-03-23T01:38:47;9.50;68.60
26164;DHT22;13914;48.178;11.716;2023-03-23T01:41:16;9.50;68.60
26164;DHT22;13914;48.178;11.716;2023-03-23T01:43:56;9.40;68.30
26164;DHT22;13914;48.178;11.716;2023-03-23T01:46:25;9.40;68.50
26164;DHT22;13914;48.178;11.716;2023-03-23T01:48:52;9.40;68.50
26164;DHT22;13914;48.178;11.716;2023-03-23T01:51:20;9.40;68.60
26164;DHT22;13914;48.178;11.716;2023-03-23T01:53:50;9.40;68.50
26164;DHT22;13914;48.178;11.716;2023-03-23T01:56:22;9.40;68.40
26164;DHT22;13914;48.178;11.716;2023-03-23T01:58:56;9.40;68.50
26164;DHT22;13914;48.178;11.716;2023-03-23T02:01:22;9.40;68.50
26164;DHT22;13914;48.178;11.716;2023-03-23T02:03:53;9.30;68.50
26164;DHT22;13914;48.178;11.716;2023-03-23T02:06:20;9.30;68.60
26164;DHT22;13914;48.178;11.716;2023-03-23T02:08:48;9.30;68.40
26164;DHT22;13914;48.178;11.716;2023-03-23T02:11:20;9.30;68.50
26164;DHT22;13914;48.178;11.716;2023-03-23T02:13:47;9.30;68.70
26164;DHT22;13914;48.178;11.716;2023-03-23T02:25:11;9.20;69.70
26164;DHT22;13914;48.178;11.716;2023-03-23T02:30:46;9.10;68.60
26164;DHT22;13914;48.178;11.716;2023-03-23T02:34:39;9.10;68.70
26164;DHT22;13914;48.178;11.716;2023-03-23T02:37:24;9.10;68.70
26164;DHT22;13914;48.178;11.716;2023-03-23T02:40:17;9.10;68.70
26164;DHT22;13914;48.178;11.716;2023-03-23T02:42:48;9.00;69.60
26164;DHT22;13914;48.178;11.716;2023-03-23T02:45:16;9.00;68.60
26164;DHT22;13914;48.178;11.716;2023-03-23T02:47:43;9.00;68.80
26164;DHT22;13914;48.178;11.716;2023-03-23T02:50:14;9.00;68.90
26164;DHT22;13914;48.178;11.716;2023-03-23T02:52:43;9.00;68.80
26164;DHT22;13914;48.178;11.716;2023-03-23T02:55:10;9.00;68.80
26164;DHT22;13914;48.178;11.716;2023-03-23T02:57:37;9.00;68.80
26164;DHT22;13914;48.178;11.716;2023-03-23T03:00:05;8.90;68.80
26164;DHT22;13914;48.178;11.716;2023-03-23T03:02:37;8.90;68.80
26164;DHT22;13914;48.178;11.716;2023-03-23T03:08:15;8.90;68.80
26164;DHT22;13914;48.178;11.716;2023-03-23T03:11:15;8.90;68.80
26164;DHT22;13914;48.178;11.716;2023-03-23T03:19:13;8.90;68.80
26164;DHT22;13914;48.178;11.716;2023-03-23T03:21:45;8.80;68.90
26164;DHT22;13914;48.178;11.716;2023-03-23T03:24:15;8.80;68.60
26164;DHT22;13914;48.178;11.716;2023-03-23T03:26:45;8.80;69.00
26164;DHT22;13914;48.178;11.716;2023-03-23T03:29:19;8.70;69.00
26164;DHT22;13914;48.178;11.716;2023-03-23T03:31:47;8.70;68.90
26164;DHT22;13914;48.178;11.716;2023-03-23T03:34:15;8.70;68.90
26164;DHT22;13914;48.178;11.716;2023-03-23T03:36:45;8.70;69.00
26164;DHT22;13914;48.178;11.716;2023-03-23T03:39:13;8.70;69.20
26164;DHT22;13914;48.178;11.716;2023-03-23T03:41:41;8.70;69.00
26164;DHT22;13914;48.178;11.716;2023-03-23T03:44:08;8.70;68.90
26164;DHT22;13914;48.178;11.716;2023-03-23T03:46:34;8.60;69.10
26164;DHT22;13914;48.178;11.716;2023-03-23T03:49:05;8.60;69.00
26164;DHT22;13914;48.178;11.716;2023-03-23T03:51:33;8.60;68.80
26164;DHT22;13914;48.178;11.716;2023-03-23T03:54:00;8.60;69.30
26164;DHT22;13914;48.178;11.716;2023-03-23T03:56:26;8.60;69.00
26164;DHT22;13914;48.178;11.716;2023-03-23T03:58:52;8.60;69.10
26164;DHT22;13914;48.178;11.716;2023-03-23T04:01:21;8.60;69.20
26164;DHT22;13914;48.178;11.716;2023-03-23T04:03:48;8.60;69.00
26164;DHT22;13914;48.178;11.716;2023-03-23T04:06:15;8.60;69.10
26164;DHT22;13914;48.178;11.716;2023-03-23T04:08:41;8.50;69.00
26164;DHT22;13914;48.178;11.716;2023-03-23T04:11:09;8.50;69.00
26164;DHT22;13914;48.178;11.716;2023-03-23T04:13:36;8.50;69.00
26164;DHT22;13914;48.178;11.716;2023-03-23T04:16:03;8.50;69.00
26164;DHT22;13914;48.178;11.716;2023-03-23T04:18:29;8.50;69.10
26164;DHT22;13914;48.178;11.716;2023-03-23T04:20:58;8.50;69.10
26164;DHT22;13914;48.178;11.716;2023-03-23T04:23:26;8.50;69.30
26164;DHT22;13914;48.178;11.716;2023-03-23T04:25:53;8.40;69.20
26164;DHT22;13914;48.178;11.716;2023-03-23T04:28:22;8.50;69.40
26164;DHT22;13914;48.178;11.716;2023-03-23T04:30:51;8.40;69.20
26164;DHT22;13914;48.178;11.716;2023-03-23T04:33:24;8.40;69.10
26164;DHT22;13914;48.178;11.716;2023-03-23T04:35:55;8.40;69.00
26164;DHT22;13914;48.178;11.716;2023-03-23T04:38:23;8.40;69.20
26164;DHT22;13914;48.178;11.716;2023-03-23T04:40:51;8.40;69.30
26164;DHT22;13914;48.178;11.716;2023-03-23T04:43:22;8.40;69.20
26164;DHT22;13914;48.178;11.716;2023-03-23T04:45:57;8.40;69.20
26164;DHT22;13914;48.178;11.716;2023-03-23T04:48:29;8.40;69.40
26164;DHT22;13914;48.178;11.716;2023-03-23T04:50:56;8.40;69.20
26164;DHT22;13914;48.178;11.716;2023-03-23T04:53:25;8.40;69.00
26164;DHT22;13914;48.178;11.716;2023-03-23T04:55:50;8.40;68.90
26164;DHT22;13914;48.178;11.716;2023-03-23T04:58:16;8.40;69.40
26164;DHT22;13914;48.178;11.716;2023-03-23T05:00:42;8.40;69.20
26164;DHT22;13914;48.178;11.716;2023-03-23T05:03:10;8.30;69.20
26164;DHT22;13914;48.178;11.716;2023-03-23T05:05:36;8.30;69.20
26164;DHT22;13914;48.178;11.716;2023-03-23T05:08:03;8.30;69.10
26164;DHT22;13914;48.178;11.716;2023-03-23T05:10:29;8.30;69.10
26164;DHT22;13914;48.178;11.716;2023-03-23T05:12:55;8.30;69.20
26164;DHT22;13914;48.178;11.716;2023-03-23T05:15:21;8.30;69.20
26164;DHT22;13914;48.178;11.716;2023-03-23T05:17:47;8.30;69.20
26164;DHT22;13914;48.178;11.716;2023-03-23T05:20:15;8.30;69.10
26164;DHT22;13914;48.178;11.716;2023-03-23T05:22:49;8.40;69.20
26164;DHT22;13914;48.178;11.716;2023-03-23T05:25:16;8.30;68.90
26164;DHT22;13914;48.178;11.716;2023-03-23T05:27:46;8.40;69.10
26164;DHT22;13914;48.178;11.716;2023-03-23T05:30:19;8.30;68.90
26164;DHT22;13914;48.178;11.716;2023-03-23T05:32:47;8.30;69.20
26164;DHT22;13914;48.178;11.716;2023-03-23T05:35:16;8.40;69.00
26164;DHT22;13914;48.178;11.716;2023-03-23T05:37:44;8.40;70.00
26164;DHT22;13914;48.178;11.716;2023-03-23T05:40:11;8.40;69.10
26164;DHT22;13914;48.178;11.716;2023-03-23T05:42:38;8.40;69.20
26164;DHT22;13914;48.178;11.716;2023-03-23T05:45:07;8.40;69.20
26164;DHT22;13914;48.178;11.716;2023-03-23T05:47:34;8.40;69.20
26164;DHT22;13914;48.178;11.716;2023-03-23T05:50:00;8.40;69.40
26164;DHT22;13914;48.178;11.716;2023-03-23T05:52:27;8.40;69.10
26164;DHT22;13914;48.178;11.716;2023-03-23T05:54:53;8.40;69.00
26164;DHT22;13914;48.178;11.716;2023-03-23T05:57:19;8.50;69.20
26164;DHT22;13914;48.178;11.716;2023-03-23T05:59:48;8.50;69.10
26164;DHT22;13914;48.178;11.716;2023-03-23T06:02:15;8.50;68.90
26164;DHT22;13914;48.178;11.716;2023-03-23T06:04:41;8.50;69.00
26164;DHT22;13914;48.178;11.716;2023-03-23T06:07:07;8.50;69.20
26164;DHT22;13914;48.178;11.716;2023-03-23T06:09:38;8.50;69.30
26164;DHT22;13914;48.178;11.716;2023-03-23T06:12:04;8.50;69.20
26164;DHT22;13914;48.178;11.716;2023-03-23T06:14:30;8.50;69.20
26164;DHT22;13914;48.178;11.716;2023-03-23T06:16:56;8.50;69.20
26164;DHT22;13914;48.178;11.716;2023-03-23T06:19:22;8.50;69.20
26164;DHT22;13914;48.178;11.716;2023-03-23T06:21:48;8.50;69.10
26164;DHT22;13914;48.178;11.716;2023-03-23T06:24:15;8.60;69.30
26164;DHT22;13914;48.178;11.716;2023-03-23T06:26:40;8.60;69.40
26164;DHT22;13914;48.178;11.716;2023-03-23T06:29:07;8.60;69.10
26164;DHT22;13914;48.178;11.716;2023-03-23T06:31:47;8.60;69.40
26164;DHT22;13914;48.178;11.716;2023-03-23T06:34:14;8.60;69.50
26164;DHT22;13914;48.178;11.716;2023-03-23T06:36:40;8.70;69.40
26164;DHT22;13914;48.178;11.716;2023-03-23T06:39:06;8.70;69.50
26164;DHT22;13914;48.178;11.716;2023-03-23T06:41:32;8.70;69.70
26164;DHT22;13914;48.178;11.716;2023-03-23T06:43:59;8.70;69.60
26164;DHT22;13914;48.178;11.716;2023-03-23T06:46:26;8.80;69.60
26164;DHT22;13914;48.178;11.716;2023-03-23T06:48:53;8.80;69.70
26164;DHT22;13914;48.178;11.716;2023-03-23T06:51:19;8.80;69.80
26164;DHT22;13914;48.178;11.716;2023-03-23T06:53:45;8.90;70.10
26164;DHT22;13914;48.178;11.716;2023-03-23T06:56:11;8.90;69.70
26164;DHT22;13914;48.178;11.716;2023-03-23T06:58:38;8.90;69.70
26164;DHT22;13914;48.178;11.716;2023-03-23T07:01:05;9.00;69.60
26164;DHT22;13914;48.178;11.716;2023-03-23T07:03:31;8.90;69.60
26164;DHT22;13914;48.178;11.716;2023-03-23T07:05:57;9.00;69.80
26164;DHT22;13914;48.178;11.716;2023-03-23T07:08:24;9.10;69.70
26164;DHT22;13914;48.178;11.716;2023-03-23T07:10:52;9.00;69.70
26164;DHT22;13914;48.178;11.716;2023-03-23T07:13:19;9.10;69.80
26164;DHT22;13914;48.178;11.716;2023-03-23T07:15:46;9.10;69.80
26164;DHT22;13914;48.178;11.716;2023-03-23T07:18:12;9.20;70.00
26164;DHT22;13914;48.178;11.716;2023-03-23T07:20:38;9.20;69.90
26164;DHT22;13914;48.178;11.716;2023-03-23T07:23:04;9.20;69.70
26164;DHT22;13914;48.178;11.716;2023-03-23T07:25:34;9.30;69.80
26164;DHT22;13914;48.178;11.716;2023-03-23T07:28:01;9.30;69.60
26164;DHT22;13914;48.178;11.716;2023-03-23T07:30:29;9.40;69.80
26164;DHT22;13914;48.178;11.716;2023-03-23T07:32:56;9.40;70.00
26164;DHT22;13914;48.178;11.716;2023-03-23T07:35:23;9.50;69.90
26164;DHT22;13914;48.178;11.716;2023-03-23T07:37:50;9.50;69.80
26164;DHT22;13914;48.178;11.716;2023-03-23T07:40:17;9.60;70.00
26164;DHT22;13914;48.178;11.716;2023-03-23T07:42:46;9.70;70.00
26164;DHT22;13914;48.178;11.716;2023-03-23T07:45:17;9.70;70.10
26164;DHT22;13914;48.178;11.716;2023-03-23T07:47:43;9.80;70.20
26164;DHT22;13914;48.178;11.716;2023-03-23T07:50:09;9.90;70.30
26164;DHT22;13914;48.178;11.716;2023-03-23T07:52:36;10.00;70.30
26164;DHT22;13914;48.178;11.716;2023-03-23T07:55:04;10.00;70.00
26164;DHT22;13914;48.178;11.716;2023-03-23T07:57:33;10.20;70.50
26164;DHT22;13914;48.178;11.716;2023-03-23T07:59:59;10.30;70.50
26164;DHT22;13914;48.178;11.716;2023-03-23T08:02:26;10.40;70.20
26164;DHT22;13914;48.178;11.716;2023-03-23T08:04:52;10.40;70.40
26164;DHT22;13914;48.178;11.716;2023-03-23T08:07:19;10.60;70.50
26164;DHT22;13914;48.178;11.716;2023-03-23T08:09:46;10.70;70.50
26164;DHT22;13914;48.178;11.716;2023-03-23T08:12:13;10.80;70.70
26164;DHT22;13914;48.178;11.716;2023-03-23T08:14:39;10.90;70.60
26164;DHT22;13914;48.178;11.716;2023-03-23T08:17:07;11.00;70.90
26164;DHT22;13914;48.178;11.716;2023-03-23T08:19:35;11.00;70.80
26164;DHT22;13914;48.178;11.716;2023-03-23T08:22:05;11.10;70.40
26164;DHT22;13914;48.178;11.716;2023-03-23T08:24:32;11.30;70.80
26164;DHT22;13914;48.178;11.716;2023-03-23T08:26:59;11.30;70.70
26164;DHT22;13914;48.178;11.716;2023-03-23T08:29:25;11.40;70.60
26164;DHT22;13914;48.178;11.716;2023-03-23T08:31:52;11.50;70.70
26164;DHT22;13914;48.178;11.716;2023-03-23T08:34:19;11.60;70.30
26164;DHT22;13914;48.178;11.716;2023-03-23T08:36:45;11.60;70.50
26164;DHT22;13914;48.178;11.716;2023-03-23T08:39:14;11.70;70.30
26164;DHT22;13914;48.178;11.716;2023-03-23T08:41:41;11.80;70.20
26164;DHT22;13914;48.178;11.716;2023-03-23T08:44:07;11.90;70.30
26164;DHT22;13914;48.178;11.716;2023-03-23T08:46:34;11.90;70.20
26164;DHT22;13914;48.178;11.716;2023-03-23T08:49:00;12.00;70.10
26164;DHT22;13914;48.178;11.716;2023-03-23T08:51:26;12.10;70.10
26164;DHT22;13914;48.178;11.716;2023-03-23T08:53:53;12.10;69.90
26164;DHT22;13914;48.178;11.716;2023-03-23T08:56:19;12.20;69.90
26164;DHT22;13914;48.178;11.716;2023-03-23T08:58:45;12.30;70.00
26164;DHT22;13914;48.178;11.716;2023-03-23T09:01:11;12.30;69.80
26164;DHT22;13914;48.178;11.716;2023-03-23T09:03:37;12.40;69.60
26164;DHT22;13914;48.178;11.716;2023-03-23T09:06:06;12.50;69.60
26164;DHT22;13914;48.178;11.716;2023-03-23T09:08:33;12.50;69.60
26164;DHT22;13914;48.178;11.716;2023-03-23T09:11:05;12.60;69.60
26164;DHT22;13914;48.178;11.716;2023-03-23T09:13:33;12.70;69.70
26164;DHT22;13914;48.178;11.716;2023-03-23T09:16:00;12.70;69.50
26164;DHT22;13914;48.178;11.716;2023-03-23T09:18:27;12.80;69.30
26164;DHT22;13914;48.178;11.716;2023-03-23T09:20:53;12.90;69.20
26164;DHT22;13914;48.178;11.716;2023-03-23T09:23:20;13.00;69.30
26164;DHT22;13914;48.178;11.716;2023-03-23T09:25:47;13.00;68.90
26164;DHT22;13914;48.178;11.716;2023-03-23T09:28:13;13.10;69.20
26164;DHT22;13914;48.178;11.716;2023-03-23T09:30:40;13.20;68.70
26164;DHT22;13914;48.178;11.716;2023-03-23T09:33:07;13.30;68.70
26164;DHT22;13914;48.178;11.716;2023-03-23T09:35:34;13.40;68.90
26164;DHT22;13914;48.178;11.716;2023-03-23T09:38:04;13.40;69.10
26164;DHT22;13914;48.178;11.716;2023-03-23T09:40:49;13.50;68.60
26164;DHT22;13914;48.178;11.716;2023-03-23T09:49:56;13.80;69.00
26164;DHT22;13914;48.178;11.716;2023-03-23T09:52:37;13.90;69.00
26164;DHT22;13914;48.178;11.716;2023-03-23T09:55:11;14.00;68.70
26164;DHT22;13914;48.178;11.716;2023-03-23T09:58:14;14.10;68.70
26164;DHT22;13914;48.178;11.716;2023-03-23T10:00:53;14.10;69.10
26164;DHT22;13914;48.178;11.716;2023-03-23T10:03:30;14.20;68.50
26164;DHT22;13914;48.178;11.716;2023-03-23T10:05:58;14.30;68.60
26164;DHT22;13914;48.178;11.716;2023-03-23T10:08:27;14.50;69.20
26164;DHT22;13914;48.178;11.716;2023-03-23T10:11:19;14.50;67.70
26164;DHT22;13914;48.178;11.716;2023-03-23T10:19:33;14.90;67.50
26164;DHT22;13914;48.178;11.716;2023-03-23T10:22:08;15.00;64.00
26164;DHT22;13914;48.178;11.716;2023-03-23T10:30:16;15.30;65.60
26164;DHT22;13914;48.178;11.716;2023-03-23T10:32:52;15.40;67.30
26164;DHT22;13914;48.178;11.716;2023-03-23T10:35:38;15.40;66.30
26164;DHT22;13914;48.178;11.716;2023-03-23T10:38:19;15.60;65.00
26164;DHT22;13914;48.178;11.716;2023-03-23T10:41:00;15.60;66.40
26164;DHT22;13914;48.178;11.716;2023-03-23T10:43:32;15.70;66.70
26164;DHT22;13914;48.178;11.716;2023-03-23T10:46:10;15.70;66.40
26164;DHT22;13914;48.178;11.716;2023-03-23T10:48:37;15.80;65.80
26164;DHT22;13914;48.178;11.716;2023-03-23T10:51:11;15.90;64.50
26164;DHT22;13914;48.178;11.716;2023-03-23T10:53:43;15.90;65.60
26164;DHT22;13914;48.178;11.716;2023-03-23T10:56:29;16.00;63.40
26164;DHT22;13914;48.178;11.716;2023-03-23T10:59:26;15.90;64.50
26164;DHT22;13914;48.178;11.716;2023-03-23T11:02:02;16.00;64.50
26164;DHT22;13914;48.178;11.716;2023-03-23T11:04:40;16.00;65.40
26164;DHT22;13914;48.178;11.716;2023-03-23T11:07:20;16.10;64.10
26164;DHT22;13914;48.178;11.716;2023-03-23T11:09:54;16.10;62.10
26164;DHT22;13914;48.178;11.716;2023-03-23T11:12:21;16.10;61.90
26164;DHT22;13914;48.178;11.716;2023-03-23T11:14:48;16.10;65.00
26164;DHT22;13914;48.178;11.716;2023-03-23T11:17:25;16.20;61.00
26164;DHT22;13914;48.178;11.716;2023-03-23T11:19:52;16.20;61.70
26164;DHT22;13914;48.178;11.716;2023-03-23T11:24:55;16.30;60.40
26164;DHT22;13914;48.178;11.716;2023-03-23T11:27:27;16.30;60.00
26164;DHT22;13914;48.178;11.716;2023-03-23T11:29:56;16.30;60.30
26164;DHT22;13914;48.178;11.716;2023-03-23T11:32:28;16.30;60.40
26164;DHT22;13914;48.178;11.716;2023-03-23T11:34:58;16.40;58.70
26164;DHT22;13914;48.178;11.716;2023-03-23T11:37:36;16.40;59.70
26164;DHT22;13914;48.178;11.716;2023-03-23T11:42:36;16.50;59.00
26164;DHT22;13914;48.178;11.716;2023-03-23T11:45:20;16.50;60.40
26164;DHT22;13914;48.178;11.716;2023-03-23T11:48:12;16.60;60.20
26164;DHT22;13914;48.178;11.716;2023-03-23T11:50:53;16.60;62.70
26164;DHT22;13914;48.178;11.716;2023-03-23T11:53:30;16.70;59.70
26164;DHT22;13914;48.178;11.716;2023-03-23T11:58:51;16.80;62.20
26164;DHT22;13914;48.178;11.716;2023-03-23T12:11:03;17.00;62.60
26164;DHT22;13914;48.178;11.716;2023-03-23T12:20:19;17.20;61.10
26164;DHT22;13914;48.178;11.716;2023-03-23T12:26:22;17.40;58.40
26164;DHT22;13914;48.178;11.716;2023-03-23T12:31:53;17.50;63.00
26164;DHT22;13914;48.178;11.716;2023-03-23T12:34:47;17.50;61.90
26164;DHT22;13914;48.178;11.716;2023-03-23T12:43:20;17.70;60.80
26164;DHT22;13914;48.178;11.716;2023-03-23T12:48:48;17.70;58.40
26164;DHT22;13914;48.178;11.716;2023-03-23T12:51:30;17.80;61.50
26164;DHT22;13914;48.178;11.716;2023-03-23T12:54:37;17.80;61.90
26164;DHT22;13914;48.178;11.716;2023-03-23T12:57:18;17.90;58.20
26164;DHT22;13914;48.178;11.716;2023-03-23T12:59:53;18.00;60.00
26164;DHT22;13914;48.178;11.716;2023-03-23T13:02:42;18.00;59.00
26164;DHT22;13914;48.178;11.716;2023-03-23T13:05:29;18.10;58.40
26164;DHT22;13914;48.178;11.716;2023-03-23T13:08:29;18.00;57.50
26164;DHT22;13914;48.178;11.716;2023-03-23T13:11:11;18.10;57.20
26164;DHT22;13914;48.178;11.716;2023-03-23T13:13:53;18.10;59.20
26164;DHT22;13914;48.178;11.716;2023-03-23T13:19:54;18.20;57.80
26164;DHT22;13914;48.178;11.716;2023-03-23T13:28:01;18.20;55.70
26164;DHT22;13914;48.178;11.716;2023-03-23T13:30:28;18.20;57.30
26164;DHT22;13914;48.178;11.716;2023-03-23T13:33:05;18.20;57.30
26164;DHT22;13914;48.178;11.716;2023-03-23T13:35:36;18.20;56.10
26164;DHT22;13914;48.178;11.716;2023-03-23T13:38:23;18.20;56.20
26164;DHT22;13914;48.178;11.716;2023-03-23T13:40:52;18.20;55.00
26164;DHT22;13914;48.178;11.716;2023-03-23T13:43:31;18.10;56.80
26164;DHT22;13914;48.178;11.716;2023-03-23T13:48:50;18.20;55.10
26164;DHT22;13914;48.178;11.716;2023-03-23T13:52:00;18.10;55.30
26164;DHT22;13914;48.178;11.716;2023-03-23T13:54:41;18.20;54.80
26164;DHT22;13914;48.178;11.716;2023-03-23T13:57:53;18.10;55.70
26164;DHT22;13914;48.178;11.716;2023-03-23T14:03:00;18.10;56.70
26164;DHT22;13914;48.178;11.716;2023-03-23T14:05:41;18.10;56.50
26164;DHT22;13914;48.178;11.716;2023-03-23T14:08:13;18.10;56.80
26164;DHT22;13914;48.178;11.716;2023-03-23T14:16:23;18.20;57.00
26164;DHT22;13914;48.178;11.716;2023-03-23T14:19:00;18.10;55.60
26164;DHT22;13914;48.178;11.716;2023-03-23T14:21:40;18.10;57.40
26164;DHT22;13914;48.178;11.716;2023-03-23T14:24:14;18.10;57.10
26164;DHT22;13914;48.178;11.716;2023-03-23T14:26:42;18.10;55.10
26164;DHT22;13914;48.178;11.716;2023-03-23T14:29:12;18.10;55.80
26164;DHT22;13914;48.178;11.716;2023-03-23T14:31:39;18.10;57.10
26164;DHT22;13914;48.178;11.716;2023-03-23T14:34:18;18.10;58.30
26164;DHT22;13914;48.178;11.716;2023-03-23T14:36:45;18.10;58.70
26164;DHT22;13914;48.178;11.716;2023-03-23T14:41:47;18.10;59.20
26164;DHT22;13914;48.178;11.716;2023-03-23T14:44:17;18.10;56.70
26164;DHT22;13914;48.178;11.716;2023-03-23T14:46:54;18.10;57.20
26164;DHT22;13914;48.178;11.716;2023-03-23T14:49:38;18.00;58.10
26164;DHT22;13914;48.178;11.716;2023-03-23T14:54:38;18.00;56.70
26164;DHT22;13914;48.178;11.716;2023-03-23T14:57:18;18.00;57.40
26164;DHT22;13914;48.178;11.716;2023-03-23T14:59:51;17.90;57.10
26164;DHT22;13914;48.178;11.716;2023-03-23T15:02:34;17.90;57.60
26164;DHT22;13914;48.178;11.716;2023-03-23T15:05:12;17.90;58.20
26164;DHT22;13914;48.178;11.716;2023-03-23T15:07:43;17.90;58.30
26164;DHT22;13914;48.178;11.716;2023-03-23T15:10:17;17.90;57.10
26164;DHT22;13914;48.178;11.716;2023-03-23T15:12:46;17.90;58.20
26164;DHT22;13914;48.178;11.716;2023-03-23T15:15:25;17.80;58.10
26164;DHT22;13914;48.178;11.716;2023-03-23T15:17:53;17.80;57.20
26164;DHT22;13914;48.178;11.716;2023-03-23T15:20:31;17.80;57.90
26164;DHT22;13914;48.178;11.716;2023-03-23T15:23:27;17.80;57.60
26164;DHT22;13914;48.178;11.716;2023-03-23T15:25:54;17.70;57.80
26164;DHT22;13914;48.178;11.716;2023-03-23T15:28:32;17.70;56.90
26164;DHT22;13914;48.178;11.716;2023-03-23T15:31:04;17.70;56.40
26164;DHT22;13914;48.178;11.716;2023-03-23T15:33:35;17.60;56.10
26164;DHT22;13914;48.178;11.716;2023-03-23T15:36:14;17.50;56.60
26164;DHT22;13914;48.178;11.716;2023-03-23T15:38:44;17.50;56.70
26164;DHT22;13914;48.178;11.716;2023-03-23T15:41:25;17.50;56.80
26164;DHT22;13914;48.178;11.716;2023-03-23T15:43:57;17.50;56.60
26164;DHT22;13914;48.178;11.716;2023-03-23T15:46:26;17.50;56.80
26164;DHT22;13914;48.178;11.716;2023-03-23T15:51:26;17.40;56.90
26164;DHT22;13914;48.178;11.716;2023-03-23T15:53:54;17.30;56.50
26164;DHT22;13914;48.178;11.716;2023-03-23T15:56:21;17.30;57.60
26164;DHT22;13914;48.178;11.716;2023-03-23T15:58:47;17.30;57.40
26164;DHT22;13914;48.178;11.716;2023-03-23T16:01:14;17.30;57.80
26164;DHT22;13914;48.178;11.716;2023-03-23T16:03:47;17.30;57.40
26164;DHT22;13914;48.178;11.716;2023-03-23T16:06:17;17.20;58.10
26164;DHT22;13914;48.178;11.716;2023-03-23T16:08:44;17.20;58.20
26164;DHT22;13914;48.178;11.716;2023-03-23T16:11:15;17.20;58.30
26164;DHT22;13914;48.178;11.716;2023-03-23T16:13:42;17.20;58.10
26164;DHT22;13914;48.178;11.716;2023-03-23T16:16:16;17.20;58.40
26164;DHT22;13914;48.178;11.716;2023-03-23T16:18:44;17.10;57.80
26164;DHT22;13914;48.178;11.716;2023-03-23T16:21:10;17.10;58.60
26164;DHT22;13914;48.178;11.716;2023-03-23T16:23:36;17.10;58.80
26164;DHT22;13914;48.178;11.716;2023-03-23T16:26:02;17.00;58.00
26164;DHT22;13914;48.178;11.716;2023-03-23T16:28:28;17.00;58.30
26164;DHT22;13914;48.178;11.716;2023-03-23T16:30:54;17.00;58.80
26164;DHT22;13914;48.178;11.716;2023-03-23T16:33:20;16.90;58.90
26164;DHT22;13914;48.178;11.716;2023-03-23T16:35:46;16.90;59.40
26164;DHT22;13914;48.178;11.716;2023-03-23T16:38:14;16.90;58.50
26164;DHT22;13914;48.178;11.716;2023-03-23T16:40:42;16.90;59.50
26164;DHT22;13914;48.178;11.716;2023-03-23T16:43:09;16.80;59.70
26164;DHT22;13914;48.178;11.716;2023-03-23T16:45:40;16.80;59.90
26164;DHT22;13914;48.178;11.716;2023-03-23T16:48:08;16.80;60.00
26164;DHT22;13914;48.178;11.716;2023-03-23T16:50:34;16.70;59.10
26164;DHT22;13914;48.178;11.716;2023-03-23T16:53:02;16.70;60.00
26164;DHT22;13914;48.178;11.716;2023-03-23T16:55:29;16.70;60.00
26164;DHT22;13914;48.178;11.716;2023-03-23T16:57:56;16.70;60.60
26164;DHT22;13914;48.178;11.716;2023-03-23T17:00:22;16.60;60.20
26164;DHT22;13914;48.178;11.716;2023-03-23T17:02:50;16.60;60.10
26164;DHT22;13914;48.178;11.716;2023-03-23T17:05:20;16.50;60.50
26164;DHT22;13914;48.178;11.716;2023-03-23T17:07:47;16.50;60.90
26164;DHT22;13914;48.178;11.716;2023-03-23T17:10:14;16.50;61.00
26164;DHT22;13914;48.178;11.716;2023-03-23T17:12:41;16.40;61.10
26164;DHT22;13914;48.178;11.716;2023-03-23T17:15:07;16.40;61.50
26164;DHT22;13914;48.178;11.716;2023-03-23T17:17:34;16.40;61.40
26164;DHT22;13914;48.178;11.716;2023-03-23T17:20:00;16.40;61.60
26164;DHT22;13914;48.178;11.716;2023-03-23T17:22:26;16.40;61.90
26164;DHT22;13914;48.178;11.716;2023-03-23T17:24:53;16.30;61.80
26164;DHT22;13914;48.178;11.716;2023-03-23T17:27:20;16.30;61.90
26164;DHT22;13914;48.178;11.716;2023-03-23T17:29:46;16.30;62.20
26164;DHT22;13914;48.178;11.716;2023-03-23T17:32:12;16.20;62.00